Terminal Aerodrome Forecast
Issued by NWS Nashville, TN

Home | Current Version | Previous Version | Text Only | Print | Product List | Glossary On
Versions: 1 2 3 4 5 6 7 8 9 10 11 12 13 14 15 16 17 18
000
FTUS44 KOHX 241700
TAFBNA
TAF
KBNA 241720Z 2418/2518 16012G24KT P6SM SCT050 BKN250
     FM251000 17010G18KT P6SM VCSH BKN035 OVC050
     FM251500 19010G20KT 6SM -SHRA VCTS BKN025CB BKN035=

USA.gov is the U.S. government's official web portal to all federal, state and local government web resources and services.